Time;durP1;ratioP1;P1;durP2;ratioP2;P2;SDS_P1;SDS_P2;PMS_P1;PMS_P2;Temp;Humidity;BMP_temperature;BMP_pressure;BME280_temperature;BME280_humidity;BME280_pressure;Samples;Min_cycle;Max_cycle;Signal;HPM_P1;HPM_P2
2023/04/07 00:00:19;;;;;;;16.38;12.93;;;;;;;0.79;43.21;93548.03;5006946;28;20650;-77
2023/04/07 00:02:45;;;;;;;15.77;11.90;;;;;;;0.81;43.16;93551.19;5008412;28;20041;-76
2023/04/07 00:05:11;;;;;;;14.63;12.35;;;;;;;0.89;43.09;93534.97;5007818;28;20409;-76
2023/04/07 00:07:36;;;;;;;15.77;12.30;;;;;;;0.98;43.17;93557.00;5009230;28;20041;-76
2023/04/07 00:10:02;;;;;;;17.15;11.50;;;;;;;0.96;42.82;93537.34;5005952;28;20154;-75
2023/04/07 00:12:27;;;;;;;15.15;11.90;;;;;;;1.03;42.17;93533.44;5007116;28;20047;-75
2023/04/07 00:14:53;;;;;;;17.80;12.13;;;;;;;1.09;42.10;93539.47;5004391;28;20548;-75
2023/04/07 00:17:18;;;;;;;17.35;11.07;;;;;;;1.12;42.11;93541.56;5004169;28;20507;-75
2023/04/07 00:19:43;;;;;;;20.13;12.13;;;;;;;1.08;42.76;93530.81;5007178;28;20033;-77
2023/04/07 00:22:09;;;;;;;15.38;11.32;;;;;;;1.15;42.54;93539.22;5004842;28;20360;-75
2023/04/07 00:24:34;;;;;;;13.95;11.10;;;;;;;1.09;42.49;93526.34;5006078;28;20543;-75
2023/04/07 00:27:00;;;;;;;13.65;11.65;;;;;;;0.84;42.73;93536.81;5006274;28;20044;-76
2023/04/07 00:29:26;;;;;;;18.90;12.07;;;;;;;0.88;42.77;93548.34;5005336;28;20489;-75
2023/04/07 00:31:51;;;;;;;16.35;11.52;;;;;;;0.74;42.26;93517.41;5005935;28;20049;-76
2023/04/07 00:34:17;;;;;;;16.95;11.40;;;;;;;0.49;42.06;93488.59;5005794;28;20021;-76
2023/04/07 00:36:42;;;;;;;15.20;12.07;;;;;;;0.85;42.54;93528.69;5007098;28;20038;-76
2023/04/07 00:39:07;;;;;;;22.98;12.27;;;;;;;0.96;42.35;93539.97;5005682;28;20033;-75
2023/04/07 00:41:34;;;;;;;14.55;11.65;;;;;;;0.73;41.88;93515.88;5006288;28;20096;-75
2023/04/07 00:44:00;;;;;;;18.77;12.27;;;;;;;0.54;42.47;93521.84;5014415;28;20022;-75
2023/04/07 00:46:26;;;;;;;14.18;11.15;;;;;;;0.52;42.88;93537.78;5008452;28;20107;-75
2023/04/07 00:48:52;;;;;;;17.52;11.57;;;;;;;0.52;42.65;93532.53;5003588;28;20669;-75
2023/04/07 00:51:20;;;;;;;18.95;11.88;;;;;;;0.54;43.24;93540.16;5007046;28;20041;-75
2023/04/07 00:53:46;;;;;;;15.07;11.35;;;;;;;0.55;43.37;93516.31;5004867;28;20037;-75
2023/04/07 00:56:12;;;;;;;15.60;11.18;;;;;;;0.69;42.64;93533.09;5001867;28;20041;-75
2023/04/07 00:58:37;;;;;;;18.50;11.68;;;;;;;0.89;42.82;93526.38;4985310;28;20378;-76
2023/04/07 01:01:15;;;;;;;14.60;10.70;;;;;;;1.06;42.12;93537.38;4988037;28;20030;-76
2023/04/07 01:04:14;;;;;;;15.52;11.48;;;;;;;0.99;42.33;93547.28;4986599;28;20042;-77
2023/04/07 01:06:46;;;;;;;12.75;11.10;;;;;;;0.82;42.95;93544.13;4984077;28;20042;-75
2023/04/07 01:09:36;;;;;;;14.68;11.40;;;;;;;0.79;42.69;93537.56;4986735;28;20253;-75
2023/04/07 01:12:11;;;;;;;17.55;12.15;;;;;;;0.72;42.54;93529.19;4988673;28;20125;-75
2023/04/07 01:14:41;;;;;;;15.40;10.73;;;;;;;0.86;42.60;93535.50;4986461;28;20116;-76
2023/04/07 01:17:09;;;;;;;13.85;10.25;;;;;;;0.87;42.50;93507.50;4993503;28;20579;-75
2023/04/07 01:20:04;;;;;;;13.65;10.60;;;;;;;0.78;42.35;93491.53;5005993;28;20057;-75
2023/04/07 01:22:35;;;;;;;15.98;10.88;;;;;;;0.97;42.35;93512.75;5005386;28;20110;-76
2023/04/07 01:25:26;;;;;;;18.60;11.65;;;;;;;1.16;42.67;93532.13;5006009;28;20029;-75
2023/04/07 01:28:02;;;;;;;15.00;10.82;;;;;;;1.17;42.22;93529.28;5005800;28;20057;-75
2023/04/07 01:30:30;;;;;;;14.55;10.18;;;;;;;1.00;42.42;93506.97;5000521;28;20123;-76
2023/04/07 01:32:58;;;;;;;14.98;10.57;;;;;;;1.08;42.57;93522.19;5006040;28;20030;-77
2023/04/07 01:35:27;;;;;;;15.02;10.80;;;;;;;0.83;43.08;93511.69;5005704;28;20041;-75
2023/04/07 01:37:53;;;;;;;13.38;10.50;;;;;;;0.93;43.19;93516.94;5012099;28;20060;-75
2023/04/07 01:40:20;;;;;;;15.07;11.32;;;;;;;0.87;42.43;93489.97;5004682;28;20492;-76
2023/04/07 01:42:47;;;;;;;13.93;10.40;;;;;;;1.11;42.24;93524.28;5005670;28;20341;-75
2023/04/07 01:45:15;;;;;;;14.90;10.82;;;;;;;1.01;42.67;93516.41;5004081;28;20038;-75
2023/04/07 01:47:41;;;;;;;17.77;11.30;;;;;;;0.80;42.29;93498.06;5005176;28;20112;-75
2023/04/07 01:50:09;;;;;;;13.65;10.32;;;;;;;0.90;42.37;93512.19;5006671;28;20038;-75
2023/04/07 01:52:35;;;;;;;14.57;10.65;;;;;;;0.94;42.14;93523.72;5005253;28;20068;-75
2023/04/07 01:55:04;;;;;;;13.75;10.98;;;;;;;0.80;41.52;93484.97;5007278;28;20493;-75
2023/04/07 01:57:30;;;;;;;14.75;10.65;;;;;;;0.86;42.29;93503.31;5004771;28;20033;-76
2023/04/07 01:59:55;;;;;;;16.42;10.45;;;;;;;0.86;42.14;93505.91;5006098;28;20041;-75
2023/04/07 02:02:21;;;;;;;17.20;10.60;;;;;;;1.00;42.06;93499.13;5003768;28;20060;-76
2023/04/07 02:04:55;;;;;;;15.50;10.50;;;;;;;1.01;41.63;93506.72;5004241;28;20030;-75
2023/04/07 02:07:38;;;;;;;20.23;10.98;;;;;;;1.01;41.73;93477.91;5007218;28;20033;-75
2023/04/07 02:10:09;;;;;;;14.43;10.75;;;;;;;1.37;41.23;93506.75;5005057;28;20049;-75
2023/04/07 02:12:36;;;;;;;15.10;10.88;;;;;;;1.28;40.86;93497.84;5006671;28;20124;-76
2023/04/07 02:15:02;;;;;;;13.57;10.10;;;;;;;1.32;40.67;93491.03;5002558;28;20381;-75
2023/04/07 02:17:30;;;;;;;12.55;10.35;;;;;;;1.36;40.79;93468.47;5004704;28;20038;-75
2023/04/07 02:19:58;;;;;;;15.75;10.45;;;;;;;1.36;40.54;93474.50;5003103;28;20029;-75
2023/04/07 02:22:25;;;;;;;12.27;10.07;;;;;;;1.44;40.46;93509.88;5006554;28;20041;-74
2023/04/07 02:24:50;;;;;;;13.75;9.75;;;;;;;1.34;41.19;93509.88;5004181;28;20042;-77
2023/04/07 02:27:16;;;;;;;13.20;9.75;;;;;;;1.28;40.74;93487.38;5004883;28;20044;-75
2023/04/07 02:29:41;;;;;;;16.70;12.48;;;;;;;1.53;40.88;93489.94;5004030;28;20053;-77
2023/04/07 02:32:07;;;;;;;22.30;12.55;;;;;;;1.71;40.24;93496.47;5004587;28;20038;-76
2023/04/07 02:34:32;;;;;;;22.50;13.80;;;;;;;1.72;40.02;93483.06;5005506;28;20456;-76
2023/04/07 02:36:57;;;;;;;20.50;12.77;;;;;;;1.81;40.28;93504.31;5003399;28;20034;-75
2023/04/07 02:39:23;;;;;;;20.73;12.40;;;;;;;1.81;40.90;93506.94;5013151;28;21013;-76
2023/04/07 02:41:48;;;;;;;17.45;10.85;;;;;;;1.68;40.12;93493.31;5004478;28;20026;-75
2023/04/07 02:44:14;;;;;;;18.48;11.35;;;;;;;1.76;40.34;93505.13;5004915;28;20497;-76
2023/04/07 02:46:40;;;;;;;14.77;10.77;;;;;;;1.84;40.41;93512.44;5002988;28;20084;-76
2023/04/07 02:49:05;;;;;;;19.42;11.95;;;;;;;1.80;40.38;93497.50;5004731;28;20030;-75
2023/04/07 02:51:31;;;;;;;17.90;10.85;;;;;;;1.91;39.81;93491.22;5003386;28;20057;-75
2023/04/07 02:53:56;;;;;;;15.63;11.07;;;;;;;1.82;40.30;93492.75;5007657;28;20057;-75
2023/04/07 02:56:22;;;;;;;13.77;10.43;;;;;;;1.66;40.42;93489.41;5001310;28;20052;-75
2023/04/07 02:58:47;;;;;;;13.95;10.15;;;;;;;1.83;40.42;93499.56;4987842;28;20030;-76
2023/04/07 03:01:12;;;;;;;16.80;11.63;;;;;;;1.91;40.14;93499.84;5004667;28;20036;-75
2023/04/07 03:03:38;;;;;;;18.15;11.20;;;;;;;1.96;40.36;93520.06;5005246;28;20033;-76
2023/04/07 03:06:04;;;;;;;17.67;11.68;;;;;;;1.86;40.37;93517.41;5005255;28;20449;-74
2023/04/07 03:08:29;;;;;;;14.40;10.95;;;;;;;1.91;40.35;93517.44;5002630;28;20608;-75
2023/04/07 03:10:55;;;;;;;13.43;9.55;;;;;;;1.91;40.12;93506.94;5005079;28;20038;-75
2023/04/07 03:13:21;;;;;;;14.77;9.98;;;;;;;1.80;40.21;93502.75;5011024;28;20074;-76
2023/04/07 03:15:47;;;;;;;10.38;8.55;;;;;;;1.49;40.52;93465.31;5005488;28;20420;-75
2023/04/07 03:18:12;;;;;;;13.15;9.80;;;;;;;1.86;40.56;93518.22;5001949;28;20041;-76
2023/04/07 03:20:40;;;;;;;11.57;9.52;;;;;;;1.89;40.74;93524.78;5003391;28;20854;-75
2023/04/07 03:23:06;;;;;;;16.60;10.52;;;;;;;1.75;40.58;93508.00;5004340;28;20269;-76
2023/04/07 03:25:32;;;;;;;12.07;9.85;;;;;;;1.94;40.50;93515.06;5004106;28;20136;-74
2023/04/07 03:27:57;;;;;;;13.07;9.73;;;;;;;1.92;40.55;93519.00;5003427;28;20246;-75
2023/04/07 03:30:23;;;;;;;14.05;9.85;;;;;;;1.89;40.60;93524.78;5002165;28;20049;-74
2023/04/07 03:32:48;;;;;;;11.82;8.80;;;;;;;1.71;40.74;93509.59;5004383;28;20117;-75
2023/04/07 03:35:13;;;;;;;12.27;9.75;;;;;;;1.62;41.25;93517.97;5002255;28;20520;-75
2023/04/07 03:37:39;;;;;;;14.48;9.40;;;;;;;1.44;41.55;93496.75;5003903;28;20235;-76
2023/04/07 03:40:05;;;;;;;10.80;8.63;;;;;;;1.39;41.36;93505.41;5001630;28;20125;-75
2023/04/07 03:42:30;;;;;;;13.43;9.45;;;;;;;1.49;41.09;93499.38;5005402;28;20084;-74
2023/04/07 03:44:56;;;;;;;13.38;8.95;;;;;;;1.46;41.62;93484.19;5002094;28;20069;-75
2023/04/07 03:47:21;;;;;;;10.85;8.88;;;;;;;1.54;41.27;93486.28;5005172;28;20034;-75
2023/04/07 03:49:47;;;;;;;14.63;9.07;;;;;;;1.85;41.02;93515.84;5001867;28;20496;-76
2023/04/07 03:52:12;;;;;;;10.52;8.30;;;;;;;1.72;41.31;93482.31;5003573;28;20080;-75
2023/04/07 03:54:37;;;;;;;13.50;9.68;;;;;;;1.74;41.18;93488.06;5003030;28;20300;-74
2023/04/07 03:57:03;;;;;;;15.18;9.43;;;;;;;1.85;41.12;93497.50;5006092;28;20128;-74
2023/04/07 03:59:28;;;;;;;16.50;9.32;;;;;;;2.11;40.89;93511.34;5005392;28;20091;-75
2023/04/07 04:01:56;;;;;;;12.05;8.80;;;;;;;2.12;40.33;93503.19;5005391;28;20118;-75
2023/04/07 04:04:23;;;;;;;13.45;9.20;;;;;;;2.19;40.53;93519.44;5005120;28;20026;-76
2023/04/07 04:06:49;;;;;;;13.32;9.82;;;;;;;1.98;40.30;93502.19;5008117;28;20070;-74
2023/04/07 04:09:15;;;;;;;16.98;9.38;;;;;;;1.84;40.81;93511.66;5008976;28;20081;-75
2023/04/07 04:11:40;;;;;;;14.70;9.73;;;;;;;1.77;41.07;93493.56;5006868;28;20555;-75
2023/04/07 04:14:05;;;;;;;13.27;9.27;;;;;;;1.78;40.66;93496.97;5007091;28;20040;-75
2023/04/07 04:16:31;;;;;;;14.23;9.73;;;;;;;1.70;41.42;93511.41;5009595;28;20021;-75
2023/04/07 04:18:57;;;;;;;12.73;8.95;;;;;;;1.59;41.55;93504.59;5009327;28;20424;-75
2023/04/07 04:21:23;;;;;;;15.20;9.25;;;;;;;1.43;41.48;93490.72;5005279;28;20067;-74
2023/04/07 04:23:48;;;;;;;12.05;9.18;;;;;;;1.54;41.71;93502.00;5008363;28;20040;-75
2023/04/07 04:26:14;;;;;;;14.68;10.07;;;;;;;1.29;42.37;93533.44;5005899;28;20041;-74
2023/04/07 04:28:40;;;;;;;13.80;10.07;;;;;;;0.71;42.88;93483.13;5005950;28;20507;-75
2023/04/07 04:31:05;;;;;;;13.32;9.68;;;;;;;1.07;43.05;93525.84;5007645;28;20511;-75
2023/04/07 04:33:30;;;;;;;12.82;8.93;;;;;;;1.20;42.79;93527.94;5012633;28;20152;-75
2023/04/07 04:35:56;;;;;;;16.02;10.48;;;;;;;0.93;43.00;93512.50;5007692;28;20049;-75
2023/04/07 04:38:21;;;;;;;14.18;9.25;;;;;;;1.10;42.63;93525.31;5005930;28;20042;-74
2023/04/07 04:40:47;;;;;;;13.45;10.27;;;;;;;0.88;43.39;93502.00;5008531;28;20147;-76
2023/04/07 04:43:12;;;;;;;12.45;9.82;;;;;;;1.16;43.07;93540.00;5004119;28;20084;-74
2023/04/07 04:45:37;;;;;;;12.18;9.95;;;;;;;1.03;42.89;93536.06;5006996;28;20033;-74
2023/04/07 04:48:03;;;;;;;13.50;9.68;;;;;;;0.90;43.51;93541.00;5005078;28;20522;-75
2023/04/07 04:50:28;;;;;;;12.02;8.75;;;;;;;0.82;43.70;93517.97;5008152;28;20026;-75
2023/04/07 04:52:54;;;;;;;12.13;9.00;;;;;;;1.04;42.71;93534.22;5004680;28;20025;-75
2023/04/07 04:55:19;;;;;;;16.67;10.73;;;;;;;0.96;42.90;93498.06;5008477;28;20033;-76
2023/04/07 04:57:45;;;;;;;15.85;9.65;;;;;;;1.36;42.69;93531.38;5005845;28;20045;-74
2023/04/07 05:00:11;;;;;;;12.65;9.05;;;;;;;1.51;41.82;93529.53;5008801;28;20040;-75
2023/04/07 05:02:36;;;;;;;12.65;9.20;;;;;;;1.55;42.12;93543.69;5003181;28;20049;-75
2023/04/07 05:05:01;;;;;;;12.35;9.00;;;;;;;1.62;41.91;93530.28;5006130;28;20336;-75
2023/04/07 05:07:27;;;;;;;12.55;8.63;;;;;;;1.56;41.26;93511.19;5004302;28;20053;-74
2023/04/07 05:09:52;;;;;;;14.73;8.55;;;;;;;1.68;41.36;93498.56;5003148;28;20413;-73
2023/04/07 05:12:18;;;;;;;12.95;8.68;;;;;;;2.20;41.06;93543.84;5006076;28;20430;-74
2023/04/07 05:14:43;;;;;;;10.93;8.57;;;;;;;2.15;40.75;93528.91;5003702;28;20045;-74
2023/04/07 05:17:08;;;;;;;11.30;9.07;;;;;;;2.22;40.44;93554.84;5005619;28;20049;-74
2023/04/07 05:19:34;;;;;;;13.23;8.88;;;;;;;2.26;41.74;93550.63;5004765;28;20108;-77
2023/04/07 05:22:00;;;;;;;13.23;8.27;;;;;;;2.32;39.91;93563.47;5005805;28;20428;-76
2023/04/07 05:24:27;;;;;;;10.38;8.38;;;;;;;2.30;40.52;93547.25;5005189;28;20029;-78
2023/04/07 05:26:53;;;;;;;13.65;8.65;;;;;;;2.54;39.78;93563.16;5005525;28;20095;-75
2023/04/07 05:29:18;;;;;;;17.05;8.20;;;;;;;2.66;39.80;93565.44;5006188;28;20033;-76
2023/04/07 05:31:44;;;;;;;11.55;7.65;;;;;;;2.58;40.12;93553.69;5002884;28;20128;-76
2023/04/07 05:34:09;;;;;;;12.70;10.77;;;;;;;2.70;38.89;93542.84;5008317;28;20017;-75
2023/04/07 05:36:34;;;;;;;12.98;8.65;;;;;;;2.78;38.59;93550.19;5005770;28;20033;-78
2023/04/07 05:39:00;;;;;;;11.10;8.35;;;;;;;2.44;40.23;93505.44;5006710;28;20489;-76
2023/04/07 05:41:26;;;;;;;12.65;9.15;;;;;;;3.04;39.41;93572.59;5004047;28;20511;-76
2023/04/07 05:43:51;;;;;;;23.60;16.20;;;;;;;2.69;42.54;93530.81;5006223;28;20558;-76
2023/04/07 05:46:17;;;;;;;23.55;16.10;;;;;;;2.35;44.29;93560.31;5005240;28;20541;-76
2023/04/07 05:48:42;;;;;;;32.58;24.48;;;;;;;2.37;45.59;93573.19;5012942;28;20038;-76
2023/04/07 05:51:07;;;;;;;24.20;18.42;;;;;;;2.68;45.93;93563.34;5004074;28;20370;-77
2023/04/07 05:53:33;;;;;;;33.15;20.58;;;;;;;1.82;46.82;93566.19;5005383;28;20038;-75
2023/04/07 05:55:58;;;;;;;26.75;19.58;;;;;;;1.81;47.58;93580.34;5007315;28;20430;-76
2023/04/07 05:58:24;;;;;;;13.73;10.00;;;;;;;2.07;44.31;93577.44;5009398;28;20029;-76
2023/04/07 06:00:49;;;;;;;12.10;9.15;;;;;;;2.65;41.01;93575.16;5001359;28;20096;-76
2023/04/07 06:03:15;;;;;;;12.05;9.07;;;;;;;2.68;40.41;93564.16;4999107;28;20029;-76
2023/04/07 06:05:42;;;;;;;13.65;8.68;;;;;;;2.86;40.07;93550.38;5002924;28;20045;-76
2023/04/07 06:08:09;;;;;;;12.85;9.60;;;;;;;2.97;40.34;93561.63;5002645;28;20047;-76
2023/04/07 06:10:34;;;;;;;12.57;8.15;;;;;;;3.35;39.16;93563.50;5006765;28;20041;-78
2023/04/07 06:13:00;;;;;;;15.80;8.23;;;;;;;3.48;39.29;93561.31;5012806;28;20036;-76
2023/04/07 06:15:25;;;;;;;10.90;7.80;;;;;;;3.43;39.31;93569.22;5006368;28;20030;-76
2023/04/07 06:17:51;;;;;;;12.90;8.93;;;;;;;3.38;38.96;93551.63;5004570;28;20531;-76
2023/04/07 06:20:16;;;;;;;16.58;8.77;;;;;;;3.61;38.71;93569.34;5006527;28;20025;-75
2023/04/07 06:22:42;;;;;;;11.20;7.95;;;;;;;3.81;38.67;93555.25;5005118;28;20393;-75
2023/04/07 06:25:08;;;;;;;17.42;9.15;;;;;;;4.14;37.87;93572.81;5003758;28;20064;-76
2023/04/07 06:27:34;;;;;;;13.98;8.98;;;;;;;4.33;37.63;93580.03;5005827;28;20033;-77
2023/04/07 06:30:00;;;;;;;13.25;9.13;;;;;;;4.15;37.19;93555.19;5010510;28;20112;-77
2023/04/07 06:32:25;;;;;;;16.33;9.77;;;;;;;4.21;38.55;93552.19;5005025;28;20436;-75
2023/04/07 06:34:51;;;;;;;12.50;9.23;;;;;;;4.14;38.00;93564.91;5003390;28;20026;-76
2023/04/07 06:37:16;;;;;;;11.15;8.32;;;;;;;4.00;37.75;93558.75;5004975;28;20050;-75
2023/04/07 06:39:42;;;;;;;9.13;8.15;;;;;;;3.86;38.39;93536.78;5003817;28;20512;-75
2023/04/07 06:42:08;;;;;;;10.60;8.18;;;;;;;3.61;38.52;93529.13;5002566;28;20048;-75
2023/04/07 06:44:33;;;;;;;12.63;9.32;;;;;;;3.81;38.48;93563.13;5004580;28;20099;-76
2023/04/07 06:46:59;;;;;;;14.50;9.77;;;;;;;3.32;39.32;93548.28;5002197;28;20123;-77
2023/04/07 06:49:24;;;;;;;11.63;7.90;;;;;;;3.34;39.07;93556.66;5006971;28;20029;-75
2023/04/07 06:51:50;;;;;;;11.40;8.50;;;;;;;3.48;38.78;93562.06;5004592;28;20038;-76
2023/04/07 06:54:15;;;;;;;13.73;8.48;;;;;;;3.74;38.75;93576.59;5006978;28;20128;-75
2023/04/07 06:56:41;;;;;;;14.65;8.07;;;;;;;3.88;38.13;93579.38;5002387;28;20101;-77
2023/04/07 06:59:07;;;;;;;13.25;8.40;;;;;;;3.34;38.38;93561.91;5003848;28;20096;-76
2023/04/07 07:01:33;;;;;;;10.73;8.45;;;;;;;3.05;39.03;93557.63;5004608;28;20080;-76
2023/04/07 07:04:01;;;;;;;12.07;8.32;;;;;;;3.31;39.56;93583.50;5002126;28;20057;-77
2023/04/07 07:06:27;;;;;;;15.52;8.70;;;;;;;3.40;38.86;93560.03;5003933;28;20069;-76
2023/04/07 07:08:53;;;;;;;10.90;8.45;;;;;;;3.70;38.47;93572.94;5004547;28;20461;-75
2023/04/07 07:11:19;;;;;;;11.07;8.95;;;;;;;3.70;38.31;93561.66;4997582;28;20041;-77
2023/04/07 07:13:45;;;;;;;11.20;8.60;;;;;;;3.52;38.25;93536.03;5000678;28;20030;-75
2023/04/07 07:16:11;;;;;;;14.85;8.27;;;;;;;3.97;37.74;93590.84;5006601;28;20368;-76
2023/04/07 07:18:37;;;;;;;12.30;9.05;;;;;;;4.07;37.81;93588.13;5001269;28;20148;-75
2023/04/07 07:21:02;;;;;;;13.23;8.80;;;;;;;4.08;38.04;93587.09;5006503;28;20053;-76
2023/04/07 07:23:28;;;;;;;10.98;8.63;;;;;;;3.88;38.05;93550.44;5003520;28;20155;-76
2023/04/07 07:25:53;;;;;;;11.02;8.30;;;;;;;4.05;36.77;93582.38;5002993;28;20488;-75
2023/04/07 07:28:20;;;;;;;12.32;8.77;;;;;;;4.08;38.12;93605.50;5004308;28;20464;-76
2023/04/07 07:30:46;;;;;;;12.48;9.05;;;;;;;3.88;37.50;93591.72;5003083;28;20136;-76
2023/04/07 07:33:11;;;;;;;13.02;8.52;;;;;;;3.94;37.78;93588.78;5006523;28;20038;-77
2023/04/07 07:35:37;;;;;;;11.85;8.43;;;;;;;4.09;38.06;93609.72;5010938;28;20105;-76
2023/04/07 07:38:02;;;;;;;12.60;8.55;;;;;;;3.79;37.60;93591.56;5009607;28;20045;-75
2023/04/07 07:40:28;;;;;;;12.10;8.38;;;;;;;3.80;38.06;93607.06;5007176;28;20038;-75
2023/04/07 07:42:53;;;;;;;13.98;8.40;;;;;;;3.53;37.95;93598.84;5007796;28;20041;-75
2023/04/07 07:45:19;;;;;;;10.90;7.90;;;;;;;3.58;38.17;93598.81;5005117;28;20037;-76
2023/04/07 07:47:44;;;;;;;12.73;7.50;;;;;;;3.58;39.23;93608.53;5006417;28;20038;-75
2023/04/07 07:50:10;;;;;;;11.55;8.13;;;;;;;3.98;38.36;93610.06;5014060;28;20083;-76
2023/04/07 07:52:35;;;;;;;10.75;8.15;;;;;;;4.06;37.38;93612.88;5008800;28;20029;-75
2023/04/07 07:55:01;;;;;;;16.05;8.23;;;;;;;3.83;38.00;93621.50;5002222;28;20382;-76
2023/04/07 07:57:26;;;;;;;10.35;8.02;;;;;;;3.68;39.50;93608.47;4987415;28;20038;-76
2023/04/07 07:59:52;;;;;;;10.68;8.50;;;;;;;3.84;38.89;93597.56;4985291;28;20128;-75
2023/04/07 08:02:18;;;;;;;11.18;7.70;;;;;;;4.04;39.09;93601.88;4987730;28;20046;-75
2023/04/07 08:04:43;;;;;;;13.70;8.90;;;;;;;3.91;37.18;93617.50;4985399;28;20041;-75
2023/04/07 08:07:10;;;;;;;11.50;7.93;;;;;;;3.93;38.94;93610.09;4989139;28;20036;-75
2023/04/07 08:09:37;;;;;;;10.90;7.30;;;;;;;4.02;37.89;93598.72;4986128;28;20128;-77
2023/04/07 08:12:02;;;;;;;9.25;7.32;;;;;;;4.18;36.87;93615.94;4989152;28;20034;-75
2023/04/07 08:14:28;;;;;;;10.35;7.22;;;;;;;4.21;37.66;93612.75;4986089;28;20045;-75
2023/04/07 08:16:54;;;;;;;12.85;7.50;;;;;;;4.36;36.78;93624.22;4987172;28;20025;-75
2023/04/07 08:19:19;;;;;;;9.82;8.02;;;;;;;4.48;37.56;93622.78;4988274;28;20057;-75
2023/04/07 08:21:45;;;;;;;8.50;7.53;;;;;;;4.69;37.04;93602.28;4985282;28;20034;-75
2023/04/07 08:24:10;;;;;;;9.73;7.82;;;;;;;4.90;36.29;93618.63;4988869;28;20081;-74
2023/04/07 08:26:36;;;;;;;12.20;7.82;;;;;;;4.98;36.59;93626.72;4985195;28;20478;-74
2023/04/07 08:29:01;;;;;;;10.13;7.78;;;;;;;5.00;36.32;93621.13;4988843;28;20042;-74
2023/04/07 08:31:27;;;;;;;10.68;8.73;;;;;;;4.83;35.76;93592.63;4987220;28;20088;-76
2023/04/07 08:33:57;;;;;;;8.75;7.22;;;;;;;4.70;37.38;93617.78;4985787;28;20592;-78
2023/04/07 08:36:26;;;;;;;10.70;6.85;;;;;;;4.60;36.87;93615.28;5000248;28;20091;-75
2023/04/07 08:38:52;;;;;;;11.50;7.68;;;;;;;4.62;36.81;93612.38;5006893;28;20067;-76
2023/04/07 08:41:29;;;;;;;12.30;8.63;;;;;;;4.54;38.56;93626.16;5009433;28;20048;-74
2023/04/07 08:43:56;;;;;;;10.93;7.72;;;;;;;4.53;37.19;93624.59;5006170;28;20033;-73
2023/04/07 08:46:24;;;;;;;9.57;7.65;;;;;;;4.67;37.05;93607.84;5005467;28;20074;-75
2023/04/07 08:48:51;;;;;;;10.25;6.97;;;;;;;4.72;36.81;93614.88;5005719;28;20111;-76
2023/04/07 08:51:31;;;;;;;10.48;7.20;;;;;;;4.68;37.49;93598.09;5006813;28;20037;-74
2023/04/07 08:54:07;;;;;;;11.32;8.05;;;;;;;4.96;36.89;93612.22;5013617;28;20441;-76
2023/04/07 08:56:33;;;;;;;11.60;7.95;;;;;;;5.13;36.33;93610.72;5009459;28;20088;-76
2023/04/07 08:59:01;;;;;;;8.23;7.03;;;;;;;4.97;36.67;93577.69;5006721;28;20037;-76
2023/04/07 09:01:28;;;;;;;11.82;7.82;;;;;;;5.28;36.57;93607.09;5004281;28;20152;-76
2023/04/07 09:03:56;;;;;;;15.43;7.78;;;;;;;5.26;37.06;93614.47;5008075;28;20751;-76
2023/04/07 09:06:22;;;;;;;10.15;6.88;;;;;;;5.33;36.30;93620.22;5004651;28;20911;-76
2023/04/07 09:08:47;;;;;;;10.77;7.28;;;;;;;5.38;36.73;93611.44;5005990;28;20053;-76
2023/04/07 09:11:13;;;;;;;10.68;7.13;;;;;;;5.28;35.45;93598.38;5004391;28;20448;-76
2023/04/07 09:13:38;;;;;;;9.38;6.65;;;;;;;5.33;36.96;93591.19;5005680;28;20064;-77
2023/04/07 09:16:04;;;;;;;9.82;7.13;;;;;;;5.58;36.58;93619.81;5008514;28;20579;-77
2023/04/07 09:18:29;;;;;;;9.52;7.32;;;;;;;5.40;36.04;93606.66;5005260;28;20069;-77
2023/04/07 09:21:02;;;;;;;10.60;7.07;;;;;;;5.23;36.15;93590.53;5007108;28;20117;-76
2023/04/07 09:23:39;;;;;;;9.13;6.60;;;;;;;5.31;36.27;93614.41;5006174;28;20500;-75
2023/04/07 09:26:17;;;;;;;9.25;6.20;;;;;;;5.71;36.12;93612.28;5006819;28;20053;-76
2023/04/07 09:28:44;;;;;;;8.65;6.72;;;;;;;5.73;35.86;93595.06;5006453;28;20597;-76
2023/04/07 09:31:10;;;;;;;11.38;6.68;;;;;;;5.80;35.46;93624.53;5005245;28;20030;-75
2023/04/07 09:33:36;;;;;;;9.52;7.50;;;;;;;5.86;35.33;93620.75;5002083;28;20539;-75
2023/04/07 09:36:02;;;;;;;12.73;7.82;;;;;;;5.81;34.64;93598.94;5004443;28;20030;-76
2023/04/07 09:38:36;;;;;;;10.88;8.23;;;;;;;5.75;36.07;93621.97;5001456;28;20435;-76
2023/04/07 09:41:15;;;;;;;11.73;8.35;;;;;;;5.95;36.15;93620.88;5005443;28;20033;-76
2023/04/07 09:43:47;;;;;;;12.90;7.82;;;;;;;6.07;35.82;93631.00;5004141;28;20199;-77
2023/04/07 09:46:13;;;;;;;9.27;7.63;;;;;;;6.06;35.68;93624.91;5006717;28;20123;-76
2023/04/07 09:48:39;;;;;;;11.75;8.25;;;;;;;6.09;35.80;93626.97;5004018;28;20038;-76
2023/04/07 09:51:06;;;;;;;8.50;7.60;;;;;;;5.75;34.69;93587.66;5005069;28;20041;-75
2023/04/07 09:53:58;;;;;;;13.07;8.18;;;;;;;5.87;35.61;93632.84;5004964;28;20426;-75
2023/04/07 09:56:25;;;;;;;10.40;8.05;;;;;;;5.83;35.09;93615.25;5000206;28;20069;-75
2023/04/07 09:58:51;;;;;;;14.55;8.73;;;;;;;6.09;35.70;93631.47;5006079;28;20536;-76
2023/04/07 10:01:18;;;;;;;11.40;7.53;;;;;;;6.08;35.04;93640.44;5003429;28;20034;-77
2023/04/07 10:03:45;;;;;;;10.18;7.85;;;;;;;5.96;35.71;93631.16;5005908;28;20609;-77
2023/04/07 10:06:12;;;;;;;10.98;8.20;;;;;;;5.91;35.64;93623.31;5003655;28;20519;-76
2023/04/07 10:08:40;;;;;;;12.50;8.05;;;;;;;6.07;35.75;93631.00;5004558;28;20051;-77
2023/04/07 10:11:06;;;;;;;11.05;8.50;;;;;;;6.06;35.65;93630.19;5007410;28;20044;-75
2023/04/07 10:13:38;;;;;;;10.45;7.72;;;;;;;5.93;35.84;93626.44;5004987;28;20397;-76
2023/04/07 10:16:06;;;;;;;10.45;7.60;;;;;;;5.97;36.12;93616.84;5007332;28;20041;-77
2023/04/07 10:18:35;;;;;;;10.80;7.95;;;;;;;6.10;35.40;93635.69;5004125;28;20080;-77
2023/04/07 10:21:03;;;;;;;9.93;8.75;;;;;;;6.02;36.28;93607.31;5005709;28;20496;-75
2023/04/07 10:24:04;;;;;;;9.65;7.30;;;;;;;6.37;35.32;93635.78;5005197;28;20069;-76
2023/04/07 10:26:33;;;;;;;11.05;7.90;;;;;;;6.36;35.39;93632.34;5003380;28;20349;-77
2023/04/07 10:29:04;;;;;;;11.65;7.75;;;;;;;6.01;35.08;93606.53;5006023;28;20247;-76
2023/04/07 10:31:30;;;;;;;11.45;8.52;;;;;;;6.21;36.14;93631.84;5005757;28;20064;-75
2023/04/07 10:33:56;;;;;;;10.40;7.50;;;;;;;6.39;35.43;93644.19;5001355;28;20069;-76
2023/04/07 10:36:22;;;;;;;11.05;8.32;;;;;;;6.51;35.52;93633.94;5005495;28;20026;-75
2023/04/07 10:39:05;;;;;;;11.50;7.95;;;;;;;6.58;34.61;93639.63;5002939;28;20391;-76
2023/04/07 10:41:39;;;;;;;11.20;7.22;;;;;;;6.65;35.36;93637.38;5004920;28;20216;-76
2023/04/07 10:44:16;;;;;;;10.20;6.65;;;;;;;6.72;35.29;93614.00;5005980;28;20412;-75
2023/04/07 10:46:45;;;;;;;9.55;7.18;;;;;;;6.65;34.26;93636.63;5001984;28;21110;-74
2023/04/07 10:49:15;;;;;;;10.40;6.93;;;;;;;6.56;34.35;93620.63;5004689;28;20029;-74
2023/04/07 10:51:41;;;;;;;10.60;7.47;;;;;;;6.57;35.37;93639.91;5010268;28;20559;-77
2023/04/07 10:54:25;;;;;;;14.55;8.00;;;;;;;6.46;36.19;93647.22;5013053;28;20464;-74
2023/04/07 10:57:02;;;;;;;11.63;9.18;;;;;;;6.44;37.26;93649.41;5004695;28;20040;-76
2023/04/07 10:59:32;;;;;;;13.10;9.73;;;;;;;6.35;38.01;93644.00;5001961;28;20033;-77
2023/04/07 11:02:16;;;;;;;13.32;9.57;;;;;;;6.09;37.86;93623.53;5004288;28;20033;-74
2023/04/07 11:04:43;;;;;;;13.57;9.48;;;;;;;6.43;37.74;93661.81;5003819;28;20745;-74
2023/04/07 11:07:10;;;;;;;11.98;9.60;;;;;;;6.33;38.25;93653.28;5013028;28;20123;-74
2023/04/07 11:09:36;;;;;;;10.57;9.48;;;;;;;6.47;37.75;93658.59;5005093;28;20073;-74
2023/04/07 11:12:01;;;;;;;10.90;9.02;;;;;;;6.40;38.16;93662.41;5009090;28;20129;-75
2023/04/07 11:14:32;;;;;;;14.48;9.48;;;;;;;6.22;38.08;93643.94;5007696;28;20100;-75
2023/04/07 11:17:00;;;;;;;14.30;12.75;;;;;;;5.65;39.12;93653.00;5007331;28;20026;-76
2023/04/07 11:19:26;;;;;;;12.52;10.48;;;;;;;5.79;39.46;93653.84;5008652;28;20022;-75
2023/04/07 11:22:17;;;;;;;15.75;10.88;;;;;;;5.91;39.27;93657.63;5013060;28;20734;-76
2023/04/07 11:24:45;;;;;;;10.95;8.75;;;;;;;6.19;38.13;93657.75;5021684;28;20497;-75
2023/04/07 11:27:14;;;;;;;10.82;9.13;;;;;;;6.06;38.20;93653.97;5009051;28;20048;-75
2023/04/07 11:29:39;;;;;;;11.93;9.15;;;;;;;6.34;39.39;93644.28;5008067;28;20040;-76
2023/04/07 11:32:05;;;;;;;13.52;10.55;;;;;;;5.99;37.81;93656.97;5006075;28;20383;-75